createdAt,value
2019-03-30T00:00:03.445Z,39.10
2019-03-30T00:01:03.452Z,43.90
2019-03-30T00:02:03.489Z,40.10
2019-03-30T00:03:03.495Z,41.00
2019-03-30T00:04:03.441Z,41.10
2019-03-30T00:05:03.475Z,39.80
2019-03-30T00:06:03.506Z,38.90
2019-03-30T00:07:03.509Z,47.30
2019-03-30T00:08:03.553Z,40.80
2019-03-30T00:09:03.543Z,43.50
2019-03-30T00:10:03.538Z,39.90
2019-03-30T00:11:03.567Z,38.30
2019-03-30T00:12:03.594Z,40.90
2019-03-30T00:13:03.563Z,35.50
2019-03-30T00:14:03.596Z,42.20
2019-03-30T00:15:03.607Z,38.90
2019-03-30T00:16:03.603Z,37.00
2019-03-30T00:17:03.637Z,37.90
2019-03-30T00:18:03.671Z,34.00
2019-03-30T00:19:03.642Z,35.60
2019-03-30T00:20:03.683Z,42.90
2019-03-30T00:21:03.689Z,38.30
2019-03-30T00:22:03.687Z,46.60
2019-03-30T00:23:03.680Z,53.20
2019-03-30T00:24:03.740Z,52.20
2019-03-30T00:25:03.698Z,43.90
2019-03-30T00:26:03.758Z,47.10
2019-03-30T00:27:03.761Z,47.70
2019-03-30T00:28:03.716Z,45.90
2019-03-30T00:29:03.807Z,52.60
2019-03-30T00:30:03.824Z,44.20
2019-03-30T00:31:03.765Z,47.00
2019-03-30T00:32:03.825Z,47.60
2019-03-30T00:33:03.895Z,42.10
2019-03-30T00:34:03.797Z,40.70
2019-03-30T00:35:03.819Z,41.20
2019-03-30T00:36:03.883Z,35.30
2019-03-30T00:37:03.832Z,40.40
2019-03-30T00:38:03.895Z,40.30
2019-03-30T00:39:03.890Z,48.60
2019-03-30T00:40:03.895Z,40.80
2019-03-30T00:41:03.914Z,39.20
2019-03-30T00:42:03.943Z,36.40
2019-03-30T00:43:03.917Z,36.40
2019-03-30T00:44:03.954Z,36.80
2019-03-30T00:45:03.973Z,36.10
2019-03-30T00:46:03.925Z,33.20
2019-03-30T00:47:04.002Z,33.10
2019-03-30T00:48:04.016Z,35.90
2019-03-30T00:49:03.978Z,42.20
2019-03-30T00:50:04.015Z,45.70
2019-03-30T00:51:04.020Z,47.60
2019-03-30T00:52:04.008Z,50.50
2019-03-30T00:53:04.059Z,53.20
2019-03-30T00:54:04.126Z,49.40
2019-03-30T00:55:04.081Z,48.60
2019-03-30T00:56:04.075Z,51.20
2019-03-30T00:57:04.105Z,48.20
2019-03-30T00:58:04.073Z,47.80
2019-03-30T00:59:04.132Z,48.90
2019-03-30T01:00:04.158Z,42.60
2019-03-30T01:01:04.122Z,41.00
2019-03-30T01:02:04.170Z,46.00
2019-03-30T01:03:04.179Z,49.00
2019-03-30T01:04:04.196Z,44.00
2019-03-30T01:05:04.181Z,40.60
2019-03-30T01:06:04.233Z,39.40
2019-03-30T01:07:04.194Z,40.40
2019-03-30T01:08:04.215Z,44.20
2019-03-30T01:09:04.236Z,37.80
2019-03-30T01:10:04.228Z,36.80
2019-03-30T01:11:04.230Z,42.60
2019-03-30T01:12:04.277Z,39.70
2019-03-30T01:13:04.285Z,36.10
2019-03-30T01:14:04.295Z,45.80
2019-03-30T01:15:04.312Z,38.10
2019-03-30T01:16:04.290Z,36.00
2019-03-30T01:17:04.353Z,33.10
2019-03-30T01:18:04.386Z,35.10
2019-03-30T01:19:04.343Z,38.70
2019-03-30T01:20:04.348Z,44.90
2019-03-30T01:21:04.375Z,38.90
2019-03-30T01:22:04.358Z,38.10
2019-03-30T01:23:04.427Z,37.50
2019-03-30T01:24:04.446Z,47.20
2019-03-30T01:25:04.427Z,43.70
2019-03-30T01:26:04.424Z,37.40
2019-03-30T01:27:04.452Z,36.50
2019-03-30T01:28:04.422Z,34.00
2019-03-30T01:29:04.465Z,32.50
2019-03-30T01:30:04.507Z,35.70
2019-03-30T01:31:04.509Z,39.40
2019-03-30T01:32:04.515Z,41.90
2019-03-30T01:33:04.518Z,48.00
2019-03-30T01:34:04.481Z,43.50
2019-03-30T01:35:04.572Z,45.20
2019-03-30T01:36:04.571Z,51.20
2019-03-30T01:37:04.582Z,44.20
2019-03-30T01:38:04.577Z,42.30
2019-03-30T01:39:04.624Z,50.10
2019-03-30T01:40:04.573Z,49.00
2019-03-30T01:41:04.579Z,49.80
2019-03-30T01:42:04.604Z,47.20
2019-03-30T01:43:04.646Z,49.40
2019-03-30T01:44:04.648Z,47.00
2019-03-30T01:45:04.732Z,46.60
2019-03-30T01:46:04.628Z,48.80
2019-03-30T01:47:04.674Z,53.40
2019-03-30T01:48:04.712Z,47.00
2019-03-30T01:49:04.703Z,43.40
2019-03-30T01:50:16.558Z,43.90
2019-03-30T01:51:04.712Z,36.70
2019-03-30T01:52:04.707Z,44.20
2019-03-30T01:53:04.725Z,44.90
2019-03-30T01:54:04.739Z,48.40
2019-03-30T01:55:04.683Z,45.30
2019-03-30T01:56:04.734Z,42.60
2019-03-30T01:57:04.753Z,44.10
2019-03-30T01:58:04.706Z,41.00
2019-03-30T01:59:04.699Z,48.90
2019-03-30T02:00:04.756Z,40.00
2019-03-30T02:01:04.721Z,37.70
2019-03-30T02:02:04.715Z,41.70
2019-03-30T02:03:04.737Z,43.00
2019-03-30T02:04:04.687Z,41.70
2019-03-30T02:05:04.734Z,42.00
2019-03-30T02:06:04.734Z,36.70
2019-03-30T02:07:04.734Z,36.80
2019-03-30T02:08:04.731Z,33.40
2019-03-30T02:09:04.750Z,43.70
2019-03-30T02:10:04.709Z,40.60
2019-03-30T02:11:04.731Z,44.50
2019-03-30T02:12:04.742Z,38.20
2019-03-30T02:13:04.698Z,51.10
2019-03-30T02:14:04.755Z,49.80
2019-03-30T02:15:04.733Z,40.50
2019-03-30T02:16:04.712Z,48.60
2019-03-30T02:17:04.727Z,42.90
2019-03-30T02:18:04.752Z,37.40
2019-03-30T02:19:04.718Z,36.00
2019-03-30T02:20:04.718Z,41.00
2019-03-30T02:21:04.723Z,49.90
2019-03-30T02:22:04.722Z,50.70
2019-03-30T02:23:04.725Z,48.40
2019-03-30T02:24:04.736Z,48.60
2019-03-30T02:25:04.719Z,46.00
2019-03-30T02:26:04.727Z,43.10
2019-03-30T02:27:04.730Z,39.80
2019-03-30T02:28:06.833Z,41.40
2019-03-30T02:29:04.728Z,49.30
2019-03-30T02:30:04.816Z,44.40
2019-03-30T02:31:04.767Z,46.10
2019-03-30T02:32:04.755Z,52.90
2019-03-30T02:33:04.755Z,54.10
2019-03-30T02:34:04.695Z,49.50
2019-03-30T02:35:04.729Z,49.20
2019-03-30T02:36:04.754Z,51.30
2019-03-30T02:37:04.723Z,47.20
2019-03-30T02:38:04.737Z,54.20
2019-03-30T02:39:04.751Z,56.90
2019-03-30T02:40:04.732Z,48.80
2019-03-30T02:41:04.765Z,44.90
2019-03-30T02:42:04.772Z,47.30
2019-03-30T02:43:04.750Z,41.90
2019-03-30T02:44:04.766Z,44.10
2019-03-30T02:45:04.790Z,44.90
2019-03-30T02:46:04.806Z,43.10
2019-03-30T02:47:04.829Z,38.00
2019-03-30T02:48:04.862Z,37.50
2019-03-30T02:49:04.837Z,35.30
2019-03-30T02:50:04.857Z,33.60
2019-03-30T02:51:04.891Z,35.70
2019-03-30T02:52:04.865Z,44.50
2019-03-30T02:53:04.911Z,50.40
2019-03-30T02:54:04.967Z,50.00
2019-03-30T02:55:04.888Z,44.90
2019-03-30T02:56:04.951Z,44.60
2019-03-30T02:57:04.964Z,51.70
2019-03-30T02:58:04.919Z,47.70
2019-03-30T02:59:04.970Z,49.20
2019-03-30T03:00:05.020Z,44.40
2019-03-30T03:01:04.964Z,44.10
2019-03-30T03:02:05.015Z,54.60
2019-03-30T03:03:05.026Z,49.00
2019-03-30T03:04:04.990Z,48.00
2019-03-30T03:05:05.022Z,48.30
2019-03-30T03:06:05.071Z,37.30
2019-03-30T03:07:05.052Z,42.90
2019-03-30T03:08:05.073Z,40.10
2019-03-30T03:09:05.063Z,35.80
2019-03-30T03:10:05.084Z,36.90
2019-03-30T03:11:05.118Z,37.00
2019-03-30T03:12:05.141Z,35.10
2019-03-30T03:13:05.091Z,32.80
2019-03-30T03:14:05.132Z,35.40
2019-03-30T03:15:05.123Z,42.10
2019-03-30T03:16:05.149Z,47.90
2019-03-30T03:17:05.171Z,48.30
2019-03-30T03:18:05.199Z,43.10
2019-03-30T03:19:05.196Z,44.70
2019-03-30T03:20:05.209Z,54.10
2019-03-30T03:21:07.815Z,50.80
2019-03-30T03:22:05.202Z,50.70
2019-03-30T03:23:05.225Z,53.60
2019-03-30T03:24:05.233Z,55.50
2019-03-30T03:25:05.213Z,60.40
2019-03-30T03:26:05.222Z,58.00
2019-03-30T03:27:05.247Z,56.20
2019-03-30T03:28:05.184Z,55.50
2019-03-30T03:29:05.241Z,64.00
2019-03-30T03:30:05.248Z,52.90
2019-03-30T03:31:05.278Z,49.00
2019-03-30T03:32:05.254Z,43.30
2019-03-30T03:33:05.236Z,38.90
2019-03-30T03:34:05.202Z,40.50
2019-03-30T03:35:05.249Z,37.10
2019-03-30T03:36:05.264Z,43.00
2019-03-30T03:37:05.241Z,42.50
2019-03-30T03:38:05.219Z,45.50
2019-03-30T03:39:05.217Z,40.90
2019-03-30T03:40:05.200Z,50.30
2019-03-30T03:41:05.244Z,41.30
2019-03-30T03:42:05.253Z,46.50
2019-03-30T03:43:05.241Z,43.90
2019-03-30T03:44:05.226Z,42.30
2019-03-30T03:45:05.225Z,43.60
2019-03-30T03:46:05.201Z,44.00
2019-03-30T03:47:05.217Z,40.40
2019-03-30T03:48:05.260Z,44.30
2019-03-30T03:49:05.221Z,49.10
2019-03-30T03:50:05.323Z,49.20
2019-03-30T03:51:05.246Z,49.40
2019-03-30T03:52:05.208Z,48.90
2019-03-30T03:53:05.304Z,48.20
2019-03-30T03:54:05.232Z,51.60
2019-03-30T03:55:05.206Z,53.70
2019-03-30T03:56:05.240Z,49.80
2019-03-30T03:57:05.242Z,50.00
2019-03-30T03:58:05.188Z,46.70
2019-03-30T03:59:05.274Z,55.60
2019-03-30T04:00:05.319Z,52.40
2019-03-30T04:01:05.223Z,51.50
2019-03-30T04:02:05.257Z,50.40
2019-03-30T04:03:05.260Z,50.40
2019-03-30T04:04:05.209Z,45.40
2019-03-30T04:05:05.237Z,46.30
2019-03-30T04:06:05.244Z,42.50
2019-03-30T04:07:05.213Z,39.10
2019-03-30T04:08:05.250Z,45.10
2019-03-30T04:09:05.243Z,44.50
2019-03-30T04:10:05.202Z,39.20
2019-03-30T04:11:05.354Z,39.90
2019-03-30T04:12:05.281Z,41.90
2019-03-30T04:13:07.157Z,41.40
2019-03-30T04:14:05.243Z,47.80
2019-03-30T04:15:05.259Z,45.50
2019-03-30T04:16:05.214Z,42.20
2019-03-30T04:17:05.242Z,41.40
2019-03-30T04:18:05.271Z,43.30
2019-03-30T04:19:05.239Z,49.60
2019-03-30T04:20:05.256Z,51.70
2019-03-30T04:21:05.278Z,48.70
2019-03-30T04:22:05.210Z,50.10
2019-03-30T04:23:05.276Z,42.10
2019-03-30T04:24:05.270Z,46.20
2019-03-30T04:25:05.268Z,51.10
2019-03-30T04:26:05.247Z,45.50
2019-03-30T04:27:05.243Z,52.70
2019-03-30T04:28:05.249Z,42.60
2019-03-30T04:29:05.269Z,48.50
2019-03-30T04:30:05.278Z,54.20
2019-03-30T04:31:05.244Z,49.30
2019-03-30T04:32:05.258Z,55.50
2019-03-30T04:33:05.265Z,49.60
2019-03-30T04:34:05.237Z,49.00
2019-03-30T04:35:05.267Z,49.60
2019-03-30T04:36:05.275Z,50.40
2019-03-30T04:37:05.280Z,45.60
2019-03-30T04:38:05.271Z,50.00
2019-03-30T04:39:05.268Z,50.80
2019-03-30T04:40:05.249Z,51.60
2019-03-30T04:41:05.257Z,43.50
2019-03-30T04:42:05.281Z,43.40
2019-03-30T04:43:05.242Z,43.40
2019-03-30T04:44:05.255Z,43.50
2019-03-30T04:45:05.272Z,46.40
2019-03-30T04:46:05.236Z,47.40
2019-03-30T04:47:05.268Z,45.50
2019-03-30T04:48:05.311Z,52.20
2019-03-30T04:49:05.254Z,47.10
2019-03-30T04:50:05.254Z,48.90
2019-03-30T04:51:05.255Z,49.40
2019-03-30T04:52:05.241Z,50.90
2019-03-30T04:53:05.251Z,57.90
2019-03-30T04:54:05.294Z,61.80
2019-03-30T04:55:05.229Z,52.10
2019-03-30T04:56:05.258Z,50.40
2019-03-30T04:57:05.273Z,51.80
2019-03-30T04:58:07.579Z,55.60
2019-03-30T04:59:05.271Z,54.00
2019-03-30T05:00:05.321Z,56.60
2019-03-30T05:01:05.281Z,53.50
2019-03-30T05:02:05.266Z,46.90
2019-03-30T05:03:05.277Z,44.40
2019-03-30T05:04:05.306Z,46.80
2019-03-30T05:05:05.320Z,45.00
2019-03-30T05:06:05.303Z,48.10
2019-03-30T05:07:05.248Z,46.50
2019-03-30T05:08:05.285Z,48.80
2019-03-30T05:09:05.290Z,46.10
2019-03-30T05:10:05.255Z,42.50
2019-03-30T05:11:05.293Z,42.50
2019-03-30T05:12:05.305Z,49.60
2019-03-30T05:13:05.280Z,49.30
2019-03-30T05:14:05.279Z,41.40
2019-03-30T05:15:05.428Z,47.90
2019-03-30T05:16:05.255Z,45.00
2019-03-30T05:17:05.333Z,41.30
2019-03-30T05:18:05.348Z,57.60
2019-03-30T05:19:05.253Z,58.80
2019-03-30T05:20:05.290Z,52.10
2019-03-30T05:21:05.291Z,51.60
2019-03-30T05:22:12.159Z,53.60
2019-03-30T05:23:05.309Z,54.20
2019-03-30T05:24:05.334Z,53.10
2019-03-30T05:25:05.261Z,47.30
2019-03-30T05:26:05.292Z,47.00
2019-03-30T05:27:05.313Z,46.40
2019-03-30T05:28:05.283Z,51.80
2019-03-30T05:29:05.319Z,49.20
2019-03-30T05:30:05.320Z,51.80
2019-03-30T05:31:05.290Z,47.70
2019-03-30T05:32:05.287Z,43.60
2019-03-30T05:33:06.286Z,39.80
2019-03-30T05:34:05.340Z,36.70
2019-03-30T05:35:05.302Z,38.20
2019-03-30T05:36:05.333Z,39.90
2019-03-30T05:37:05.265Z,35.70
2019-03-30T05:38:05.305Z,36.60
2019-03-30T05:39:05.340Z,38.90
2019-03-30T05:40:05.271Z,39.90
2019-03-30T05:41:05.324Z,37.20
2019-03-30T05:42:05.332Z,38.00
2019-03-30T05:43:05.292Z,34.10
2019-03-30T05:44:05.313Z,33.80
2019-03-30T05:45:05.323Z,33.60
2019-03-30T05:46:05.264Z,34.80
2019-03-30T05:47:05.340Z,38.40
2019-03-30T05:48:05.336Z,35.70
2019-03-30T05:49:05.263Z,31.40
2019-03-30T05:50:05.353Z,34.70
2019-03-30T05:51:05.338Z,32.70
2019-03-30T05:52:05.276Z,31.10
2019-03-30T05:53:05.287Z,35.80
2019-03-30T05:54:05.353Z,33.30
2019-03-30T05:55:05.285Z,36.10
2019-03-30T05:56:05.273Z,32.00
2019-03-30T05:57:05.334Z,34.60
2019-03-30T05:58:05.297Z,34.40
2019-03-30T05:59:05.297Z,40.80
2019-03-30T06:00:05.414Z,35.80
2019-03-30T06:01:05.286Z,37.90
2019-03-30T06:02:05.311Z,54.30
2019-03-30T06:03:05.331Z,48.70
2019-03-30T06:04:05.283Z,45.40
2019-03-30T06:05:05.339Z,40.20
2019-03-30T06:06:05.331Z,35.20
2019-03-30T06:07:05.304Z,41.20
2019-03-30T06:08:05.301Z,48.10
2019-03-30T06:09:05.327Z,51.40
2019-03-30T06:10:05.310Z,55.10
2019-03-30T06:11:05.328Z,51.80
2019-03-30T06:12:05.347Z,55.50
2019-03-30T06:13:05.271Z,53.50
2019-03-30T06:14:05.335Z,49.20
2019-03-30T06:15:05.367Z,52.70
2019-03-30T06:16:05.309Z,56.40
2019-03-30T06:17:05.340Z,52.80
2019-03-30T06:18:05.322Z,50.80
2019-03-30T06:19:05.301Z,53.30
2019-03-30T06:20:05.326Z,55.10
2019-03-30T06:21:05.363Z,52.20
2019-03-30T06:22:05.342Z,45.80
2019-03-30T06:23:05.323Z,50.80
2019-03-30T06:24:05.314Z,49.00
2019-03-30T06:25:05.313Z,48.40
2019-03-30T06:26:05.347Z,47.10
2019-03-30T06:27:05.353Z,45.90
2019-03-30T06:28:05.355Z,47.70
2019-03-30T06:29:05.334Z,45.10
2019-03-30T06:30:05.356Z,44.30
2019-03-30T06:31:05.301Z,45.10
2019-03-30T06:32:05.350Z,46.50
2019-03-30T06:33:05.403Z,46.50
2019-03-30T06:34:05.332Z,46.30
2019-03-30T06:35:05.327Z,43.20
2019-03-30T06:36:05.349Z,49.90
2019-03-30T06:37:05.325Z,49.50
2019-03-30T06:38:05.351Z,47.20
2019-03-30T06:39:05.375Z,48.10
2019-03-30T06:40:05.323Z,47.40
2019-03-30T06:41:05.318Z,48.70
2019-03-30T06:42:05.335Z,48.40
2019-03-30T06:43:07.696Z,43.70
2019-03-30T06:44:05.353Z,41.10
2019-03-30T06:45:05.354Z,42.80
2019-03-30T06:46:05.327Z,43.70
2019-03-30T06:47:05.310Z,41.40
2019-03-30T06:48:05.363Z,41.50
2019-03-30T06:49:05.322Z,43.20
2019-03-30T06:50:05.353Z,38.40
2019-03-30T06:51:05.352Z,39.70
2019-03-30T06:52:05.310Z,41.40
2019-03-30T06:53:05.339Z,41.70
2019-03-30T06:54:05.360Z,41.90
2019-03-30T06:55:05.347Z,41.10
2019-03-30T06:56:05.364Z,37.30
2019-03-30T06:57:05.363Z,39.20
2019-03-30T06:58:05.341Z,40.60
2019-03-30T06:59:05.359Z,40.60
2019-03-30T07:00:05.369Z,38.70
2019-03-30T07:01:05.340Z,40.10
2019-03-30T07:02:05.339Z,39.50
2019-03-30T07:03:05.367Z,40.80
2019-03-30T07:04:05.339Z,38.20
2019-03-30T07:05:05.379Z,38.10
2019-03-30T07:06:05.400Z,41.60
2019-03-30T07:07:05.321Z,37.00
2019-03-30T07:08:05.381Z,37.00
2019-03-30T07:09:05.364Z,47.10
2019-03-30T07:10:05.325Z,39.80
2019-03-30T07:11:05.364Z,39.30
2019-03-30T07:12:05.387Z,38.70
2019-03-30T07:13:05.340Z,33.50
2019-03-30T07:14:05.370Z,33.20
2019-03-30T07:15:05.416Z,35.50
2019-03-30T07:16:05.376Z,37.30
2019-03-30T07:17:05.372Z,33.60
2019-03-30T07:18:05.416Z,33.70
2019-03-30T07:19:05.375Z,36.50
2019-03-30T07:20:05.342Z,39.90
2019-03-30T07:21:05.435Z,40.90
2019-03-30T07:22:05.332Z,37.20
2019-03-30T07:23:11.833Z,33.60
2019-03-30T07:24:05.382Z,33.20
2019-03-30T07:25:05.426Z,32.30
2019-03-30T07:26:05.365Z,33.40
2019-03-30T07:27:05.369Z,30.10
2019-03-30T07:28:05.360Z,34.90
2019-03-30T07:29:05.486Z,32.10
2019-03-30T07:30:05.395Z,29.80
2019-03-30T07:31:05.351Z,29.10
2019-03-30T07:32:05.362Z,28.50
2019-03-30T07:33:05.405Z,31.60
2019-03-30T07:34:05.352Z,29.10
2019-03-30T07:35:05.396Z,32.90
2019-03-30T07:36:05.402Z,28.80
2019-03-30T07:37:05.354Z,28.20
2019-03-30T07:38:05.385Z,32.10
2019-03-30T07:39:05.378Z,29.20
2019-03-30T07:40:05.376Z,33.40
2019-03-30T07:41:05.409Z,29.10
2019-03-30T07:42:05.425Z,28.50
2019-03-30T07:43:05.366Z,31.20
2019-03-30T07:44:05.369Z,29.20
2019-03-30T07:45:05.381Z,27.70
2019-03-30T07:46:05.367Z,25.90
2019-03-30T07:47:05.357Z,25.90
2019-03-30T07:48:05.407Z,27.00
2019-03-30T07:49:05.349Z,28.20
2019-03-30T07:50:05.372Z,29.40
2019-03-30T07:51:05.387Z,28.50
2019-03-30T07:52:05.369Z,34.50
2019-03-30T07:53:05.383Z,37.30
2019-03-30T07:54:05.411Z,42.30
2019-03-30T07:55:05.369Z,43.90
2019-03-30T07:56:08.514Z,32.70
2019-03-30T07:57:12.323Z,35.60
2019-03-30T07:58:05.411Z,37.70
2019-03-30T07:59:05.411Z,37.70
2019-03-30T08:00:05.410Z,36.10
2019-03-30T08:01:05.361Z,34.40
2019-03-30T08:02:05.406Z,31.20
2019-03-30T08:03:05.401Z,31.50
2019-03-30T08:04:05.356Z,30.80
2019-03-30T08:05:05.492Z,30.00
2019-03-30T08:06:05.432Z,29.90
2019-03-30T08:07:05.379Z,27.00
2019-03-30T08:08:05.391Z,25.70
2019-03-30T08:09:05.408Z,23.30
2019-03-30T08:10:05.452Z,22.40
2019-03-30T08:11:05.431Z,22.20
2019-03-30T08:12:05.443Z,22.80
2019-03-30T08:13:05.384Z,22.90
2019-03-30T08:14:05.386Z,21.30
2019-03-30T08:15:05.405Z,22.10
2019-03-30T08:16:05.357Z,21.70
2019-03-30T08:17:05.419Z,22.40
2019-03-30T08:18:05.421Z,22.50
2019-03-30T08:19:05.354Z,20.20
2019-03-30T08:20:05.421Z,21.60
2019-03-30T08:21:05.421Z,19.30
2019-03-30T08:22:05.368Z,23.80
2019-03-30T08:23:05.424Z,20.60
2019-03-30T08:24:05.444Z,19.30
2019-03-30T08:25:05.372Z,20.20
2019-03-30T08:26:05.393Z,22.00
2019-03-30T08:27:05.469Z,20.10
2019-03-30T08:28:05.357Z,19.30
2019-03-30T08:29:05.409Z,21.30
2019-03-30T08:30:05.426Z,17.30
2019-03-30T08:31:05.385Z,16.60
2019-03-30T08:32:05.416Z,15.50
2019-03-30T08:33:05.432Z,17.50
2019-03-30T08:34:05.397Z,17.90
2019-03-30T08:35:05.441Z,16.70
2019-03-30T08:36:05.441Z,15.60
2019-03-30T08:37:05.406Z,18.30
2019-03-30T08:38:05.407Z,21.80
2019-03-30T08:39:05.421Z,18.80
2019-03-30T08:40:05.365Z,17.30
2019-03-30T08:41:05.456Z,15.60
2019-03-30T08:42:05.506Z,18.20
2019-03-30T08:43:05.412Z,16.60
2019-03-30T08:44:05.404Z,16.60
2019-03-30T08:45:05.482Z,16.30
2019-03-30T08:46:05.389Z,16.70
2019-03-30T08:47:05.449Z,14.60
2019-03-30T08:48:05.507Z,17.40
2019-03-30T08:49:05.405Z,16.50
2019-03-30T08:50:05.396Z,17.70
2019-03-30T08:51:05.425Z,14.90
2019-03-30T08:52:05.379Z,16.90
2019-03-30T08:53:05.419Z,12.80
2019-03-30T08:54:05.451Z,14.80
2019-03-30T08:55:05.398Z,13.80
2019-03-30T08:56:05.435Z,16.00
2019-03-30T08:57:05.455Z,15.00
2019-03-30T08:58:05.412Z,14.80
2019-03-30T08:59:05.435Z,14.00
2019-03-30T09:00:05.451Z,13.00
2019-03-30T09:01:05.395Z,14.70
2019-03-30T09:02:05.427Z,15.80
2019-03-30T09:03:05.488Z,14.10
2019-03-30T09:04:05.393Z,15.40
2019-03-30T09:05:05.476Z,13.80
2019-03-30T09:06:05.463Z,15.20
2019-03-30T09:07:05.409Z,14.80
2019-03-30T09:08:05.438Z,15.60
2019-03-30T09:09:05.434Z,14.10
2019-03-30T09:10:05.439Z,14.40
2019-03-30T09:11:05.462Z,15.10
2019-03-30T09:12:05.473Z,13.40
2019-03-30T09:13:05.434Z,13.80
2019-03-30T09:14:05.482Z,16.10
2019-03-30T09:15:05.462Z,16.50
2019-03-30T09:16:05.413Z,14.00
2019-03-30T09:17:05.418Z,16.10
2019-03-30T09:18:05.473Z,16.80
2019-03-30T09:19:05.411Z,14.70
2019-03-30T09:20:05.445Z,17.60
2019-03-30T09:21:05.457Z,24.00
2019-03-30T09:22:05.410Z,16.30
2019-03-30T09:23:05.460Z,15.70
2019-03-30T09:24:09.947Z,16.10
2019-03-30T09:25:05.454Z,14.30
2019-03-30T09:26:05.456Z,14.90
2019-03-30T09:27:05.427Z,14.70
2019-03-30T09:28:05.432Z,17.30
2019-03-30T09:29:05.493Z,15.10
2019-03-30T09:30:05.507Z,14.40
2019-03-30T09:31:05.419Z,15.00
2019-03-30T09:32:14.148Z,15.20
2019-03-30T09:33:05.472Z,18.30
2019-03-30T09:34:05.521Z,16.00
2019-03-30T09:35:05.483Z,15.00
2019-03-30T09:36:05.487Z,12.30
2019-03-30T09:37:05.426Z,15.80
2019-03-30T09:38:05.454Z,15.10
2019-03-30T09:39:05.448Z,12.40
2019-03-30T09:40:05.455Z,14.80
2019-03-30T09:41:05.480Z,15.00
2019-03-30T09:42:05.500Z,15.00
2019-03-30T09:43:05.439Z,16.20
2019-03-30T09:44:05.485Z,14.30
2019-03-30T09:45:05.481Z,17.00
2019-03-30T09:46:05.455Z,13.60
2019-03-30T09:47:05.504Z,14.40
2019-03-30T09:48:05.509Z,12.40
2019-03-30T09:49:05.455Z,14.50
2019-03-30T09:50:05.467Z,13.40
2019-03-30T09:51:05.489Z,14.30
2019-03-30T09:52:05.444Z,15.00
2019-03-30T09:53:05.486Z,12.60
2019-03-30T09:54:05.503Z,12.40
2019-03-30T09:55:05.443Z,14.80
2019-03-30T09:56:05.496Z,13.30
2019-03-30T09:57:05.509Z,12.60
2019-03-30T09:58:05.468Z,12.50
2019-03-30T09:59:05.489Z,13.30
2019-03-30T10:00:05.514Z,13.60
2019-03-30T10:01:05.457Z,14.60
2019-03-30T10:02:05.504Z,14.00
2019-03-30T10:03:06.167Z,12.50
2019-03-30T10:04:05.478Z,12.40
2019-03-30T10:05:05.499Z,15.30
2019-03-30T10:06:05.516Z,13.80
2019-03-30T10:07:05.444Z,12.60
2019-03-30T10:08:05.509Z,13.20
2019-03-30T10:09:05.560Z,13.00
2019-03-30T10:10:05.467Z,13.90
2019-03-30T10:11:05.515Z,13.80
2019-03-30T10:12:05.521Z,15.10
2019-03-30T10:13:05.465Z,14.60
2019-03-30T10:14:05.485Z,13.50
2019-03-30T10:15:05.502Z,14.10
2019-03-30T10:16:05.459Z,11.60
2019-03-30T10:17:05.529Z,12.40
2019-03-30T10:18:05.568Z,11.70
2019-03-30T10:19:05.479Z,13.00
2019-03-30T10:20:05.515Z,11.80
2019-03-30T10:21:05.522Z,13.00
2019-03-30T10:22:05.462Z,12.60
2019-03-30T10:23:05.518Z,12.00
2019-03-30T10:24:05.546Z,11.30
2019-03-30T10:25:05.467Z,12.20
2019-03-30T10:26:05.511Z,12.90
2019-03-30T10:27:05.566Z,12.60
2019-03-30T10:28:05.501Z,12.40
2019-03-30T10:29:05.502Z,11.50
2019-03-30T10:30:05.555Z,13.70
2019-03-30T10:31:05.495Z,12.90
2019-03-30T10:32:05.531Z,11.10
2019-03-30T10:33:05.526Z,12.00
2019-03-30T10:34:05.498Z,11.30
2019-03-30T10:35:05.702Z,10.20
2019-03-30T10:36:05.565Z,10.70
2019-03-30T10:37:05.494Z,10.50
2019-03-30T10:38:05.519Z,10.30
2019-03-30T10:39:05.541Z,10.80
2019-03-30T10:40:05.497Z,11.50
2019-03-30T10:41:05.547Z,11.30
2019-03-30T10:42:05.568Z,11.70
2019-03-30T10:43:05.492Z,11.20
2019-03-30T10:44:05.511Z,10.90
2019-03-30T10:45:05.538Z,10.50
2019-03-30T10:46:05.518Z,10.60
2019-03-30T10:47:05.533Z,9.90
2019-03-30T10:48:05.563Z,10.30
2019-03-30T10:49:05.511Z,12.30
2019-03-30T10:50:05.505Z,9.90
2019-03-30T10:51:05.549Z,9.90
2019-03-30T10:52:05.504Z,9.90
2019-03-30T10:53:05.540Z,9.50
2019-03-30T10:54:05.559Z,10.60
2019-03-30T10:55:05.509Z,9.90
2019-03-30T10:56:05.520Z,11.00
2019-03-30T10:57:05.558Z,10.90
2019-03-30T10:58:05.491Z,12.00
2019-03-30T10:59:05.555Z,10.70
2019-03-30T11:00:05.568Z,12.40
2019-03-30T11:01:05.517Z,10.60
2019-03-30T11:02:05.600Z,10.30
2019-03-30T11:03:05.556Z,10.60
2019-03-30T11:04:05.529Z,10.10
2019-03-30T11:05:05.577Z,13.40
2019-03-30T11:06:05.579Z,10.00
2019-03-30T11:07:05.520Z,9.90
2019-03-30T11:08:05.554Z,9.20
2019-03-30T11:09:05.573Z,9.90
2019-03-30T11:10:05.551Z,10.00
2019-03-30T11:11:05.750Z,9.20
2019-03-30T11:12:05.578Z,9.30
2019-03-30T11:13:05.527Z,9.50
2019-03-30T11:14:05.552Z,8.60
2019-03-30T11:15:05.557Z,8.20
2019-03-30T11:16:05.534Z,8.10
2019-03-30T11:17:05.645Z,8.90
2019-03-30T11:18:05.606Z,11.30
2019-03-30T11:19:05.541Z,8.60
2019-03-30T11:20:05.562Z,9.20
2019-03-30T11:21:05.575Z,9.90
2019-03-30T11:22:05.518Z,9.60
2019-03-30T11:23:05.601Z,8.80
2019-03-30T11:24:06.866Z,8.30
2019-03-30T11:25:07.727Z,8.00
2019-03-30T11:26:05.554Z,9.40
2019-03-30T11:27:05.577Z,7.80
2019-03-30T11:28:05.549Z,8.40
2019-03-30T11:29:05.597Z,8.40
2019-03-30T11:30:05.600Z,8.70
2019-03-30T11:31:05.734Z,8.00
2019-03-30T11:32:05.580Z,8.80
2019-03-30T11:33:05.594Z,8.60
2019-03-30T11:34:05.588Z,9.80
2019-03-30T11:35:05.586Z,9.50
2019-03-30T11:36:05.591Z,8.60
2019-03-30T11:37:05.574Z,8.50
2019-03-30T11:38:05.563Z,8.40
2019-03-30T11:39:05.603Z,8.80
2019-03-30T11:40:05.579Z,8.50
2019-03-30T11:41:05.572Z,8.50
2019-03-30T11:42:05.603Z,9.30
2019-03-30T11:43:05.560Z,9.90
2019-03-30T11:44:05.594Z,9.60
2019-03-30T11:45:05.629Z,8.90
2019-03-30T11:46:05.586Z,11.00
2019-03-30T11:47:05.555Z,9.10
2019-03-30T11:48:05.605Z,10.50
2019-03-30T11:49:05.566Z,9.50
2019-03-30T11:50:05.580Z,9.90
2019-03-30T11:51:05.614Z,9.20
2019-03-30T11:52:05.586Z,9.50
2019-03-30T11:53:05.556Z,9.00
2019-03-30T11:54:05.629Z,8.90
2019-03-30T11:55:05.616Z,9.30
2019-03-30T11:56:05.559Z,8.20
2019-03-30T11:57:05.625Z,7.60
2019-03-30T11:58:05.549Z,9.70
2019-03-30T11:59:05.622Z,7.40
2019-03-30T12:00:05.662Z,9.30
2019-03-30T12:01:05.594Z,10.10
2019-03-30T12:02:05.597Z,8.80
2019-03-30T12:03:05.680Z,9.10
2019-03-30T12:04:05.597Z,10.20
2019-03-30T12:05:05.631Z,9.50
2019-03-30T12:06:05.679Z,8.90
2019-03-30T12:07:05.598Z,10.20
2019-03-30T12:08:05.650Z,10.10
2019-03-30T12:09:05.628Z,10.40
2019-03-30T12:10:05.612Z,11.90
2019-03-30T12:11:05.611Z,8.80
2019-03-30T12:12:05.703Z,9.30
2019-03-30T12:13:05.600Z,8.50
2019-03-30T12:14:05.630Z,10.70
2019-03-30T12:15:05.643Z,10.50
2019-03-30T12:16:05.593Z,12.10
2019-03-30T12:17:05.609Z,11.60
2019-03-30T12:18:05.631Z,9.60
2019-03-30T12:19:05.595Z,11.70
2019-03-30T12:20:05.624Z,12.80
2019-03-30T12:21:05.647Z,12.00
2019-03-30T12:22:05.627Z,10.80
2019-03-30T12:23:05.590Z,12.10
2019-03-30T12:24:05.648Z,11.30
2019-03-30T12:25:05.645Z,13.10
2019-03-30T12:26:05.632Z,12.20
2019-03-30T12:27:05.657Z,12.20
2019-03-30T12:28:05.629Z,10.50
2019-03-30T12:29:05.628Z,11.20
2019-03-30T12:30:05.674Z,9.80
2019-03-30T12:31:05.620Z,9.00
2019-03-30T12:32:05.621Z,10.30
2019-03-30T12:33:05.659Z,10.90
2019-03-30T12:34:05.622Z,11.10
2019-03-30T12:35:05.679Z,12.70
2019-03-30T12:36:05.679Z,10.30
2019-03-30T12:37:05.616Z,10.00
2019-03-30T12:38:05.646Z,10.60
2019-03-30T12:39:05.655Z,10.70
2019-03-30T12:40:05.618Z,8.90
2019-03-30T12:41:05.686Z,9.80
2019-03-30T12:42:05.661Z,10.20
2019-03-30T12:43:05.635Z,9.80
2019-03-30T12:44:05.642Z,8.70
2019-03-30T12:45:05.662Z,11.40
2019-03-30T12:46:05.650Z,11.90
2019-03-30T12:47:05.680Z,11.00
2019-03-30T12:48:05.663Z,11.30
2019-03-30T12:49:05.635Z,10.70
2019-03-30T12:50:05.646Z,9.50
2019-03-30T12:51:05.671Z,10.70
2019-03-30T12:52:05.670Z,10.70
2019-03-30T12:53:05.715Z,10.50
2019-03-30T12:54:05.674Z,9.80
2019-03-30T12:55:05.629Z,11.60